createdAt,value
2022-07-28T00:04:49.311Z,20.20
2022-07-28T00:09:42.755Z,20.30
2022-07-28T00:14:36.331Z,20.20
2022-07-28T00:19:31.388Z,20.10
2022-07-28T00:24:24.852Z,19.90
2022-07-28T00:29:18.251Z,19.90
2022-07-28T00:34:12.151Z,19.90
2022-07-28T00:39:07.326Z,20.00
2022-07-28T00:44:00.641Z,19.90
2022-07-28T00:48:56.406Z,20.00
2022-07-28T00:53:50.316Z,19.90
2022-07-28T00:58:45.054Z,19.90
2022-07-28T01:03:43.987Z,20.10
2022-07-28T01:08:54.524Z,20.00
2022-07-28T01:14:03.921Z,20.10
2022-07-28T01:19:09.630Z,20.10
2022-07-28T01:24:24.090Z,20.10
2022-07-28T01:30:00.543Z,19.80
2022-07-28T01:35:01.880Z,19.70
2022-07-28T01:40:04.494Z,19.70
2022-07-28T01:45:05.250Z,19.60
2022-07-28T01:50:06.335Z,19.50
2022-07-28T01:55:02.950Z,19.50
2022-07-28T01:59:58.811Z,19.50
2022-07-28T02:04:57.008Z,19.50
2022-07-28T02:09:52.732Z,19.50
2022-07-28T02:14:51.420Z,19.50
2022-07-28T02:19:48.756Z,19.50
2022-07-28T02:24:46.204Z,19.40
2022-07-28T02:30:02.668Z,19.40
2022-07-28T02:35:05.436Z,19.40
2022-07-28T02:40:01.508Z,19.50
2022-07-28T02:45:01.728Z,19.30
2022-07-28T02:49:57.440Z,19.20
2022-07-28T02:54:53.084Z,19.00
2022-07-28T02:59:48.469Z,18.90
2022-07-28T03:05:01.705Z,18.70
2022-07-28T03:09:55.567Z,18.60
2022-07-28T03:14:49.153Z,18.50
2022-07-28T03:19:44.058Z,18.40
2022-07-28T03:24:39.898Z,18.30
2022-07-28T03:29:37.417Z,18.20
2022-07-28T03:34:31.091Z,18.50
2022-07-28T03:39:32.576Z,18.30
2022-07-28T03:44:28.971Z,18.30
2022-07-28T03:49:23.247Z,18.20
2022-07-28T03:54:17.033Z,18.00
2022-07-28T03:59:12.425Z,18.00
2022-07-28T04:04:06.539Z,17.90
2022-07-28T04:08:59.887Z,18.00
2022-07-28T04:13:53.556Z,17.80
2022-07-28T04:18:48.576Z,17.70
2022-07-28T04:23:42.090Z,17.70
2022-07-28T04:28:36.093Z,17.70
2022-07-28T04:33:29.460Z,17.60
2022-07-28T04:38:24.228Z,17.60
2022-07-28T04:43:17.968Z,17.70
2022-07-28T04:48:12.418Z,17.70
2022-07-28T04:53:05.800Z,17.80
2022-07-28T04:58:00.461Z,17.90
2022-07-28T05:02:53.838Z,18.10
2022-07-28T05:07:47.310Z,18.30
2022-07-28T05:12:41.147Z,18.50
2022-07-28T05:17:36.951Z,18.70
2022-07-28T05:22:30.796Z,18.90
2022-07-28T05:27:24.486Z,19.20
2022-07-28T05:32:18.237Z,19.30
2022-07-28T05:37:13.160Z,19.50
2022-07-28T05:42:07.186Z,19.60
2022-07-28T05:47:00.513Z,19.60
2022-07-28T05:51:53.831Z,19.70
2022-07-28T05:56:50.442Z,19.80
2022-07-28T06:01:43.936Z,19.90
2022-07-28T06:06:37.735Z,19.80
2022-07-28T06:11:31.105Z,19.70
2022-07-28T06:16:26.100Z,19.70
2022-07-28T06:21:19.740Z,19.80
2022-07-28T06:26:13.113Z,19.70
2022-07-28T06:31:06.664Z,19.40
2022-07-28T06:36:01.456Z,19.40
2022-07-28T06:40:54.812Z,19.50
2022-07-28T06:45:48.295Z,19.60
2022-07-28T06:50:45.989Z,19.60
2022-07-28T06:55:41.372Z,19.80
2022-07-28T07:00:34.895Z,19.90
2022-07-28T07:05:30.026Z,20.00
2022-07-28T07:10:23.551Z,20.10
2022-07-28T07:15:18.320Z,20.00
2022-07-28T07:20:14.325Z,20.00
2022-07-28T07:25:11.369Z,20.20
2022-07-28T07:30:06.177Z,20.60
2022-07-28T07:35:00.963Z,20.90
2022-07-28T07:39:54.310Z,21.10
2022-07-28T07:44:50.307Z,21.00
2022-07-28T07:49:46.100Z,21.30
2022-07-28T07:54:41.335Z,21.60
2022-07-28T07:59:34.698Z,21.70
2022-07-28T08:04:28.798Z,21.80
2022-07-28T08:09:22.462Z,22.10
2022-07-28T08:14:17.999Z,22.30
2022-07-28T08:19:11.826Z,22.50
2022-07-28T08:24:05.965Z,22.50
2022-07-28T08:28:59.348Z,22.70
2022-07-28T08:33:54.909Z,22.80
2022-07-28T08:38:48.473Z,23.00
2022-07-28T08:43:43.714Z,23.20
2022-07-28T08:48:39.227Z,23.40
2022-07-28T08:53:36.763Z,23.40
2022-07-28T08:58:33.412Z,23.50
2022-07-28T09:03:29.170Z,23.60
2022-07-28T09:08:23.154Z,23.70
2022-07-28T09:13:19.219Z,24.00
2022-07-28T09:18:12.650Z,23.90
2022-07-28T09:23:33.495Z,23.90
2022-07-28T09:28:23.939Z,24.20
2022-07-28T09:33:42.929Z,24.60
2022-07-28T09:38:42.937Z,24.80
2022-07-28T09:43:40.747Z,24.80
2022-07-28T09:48:34.324Z,24.90
2022-07-28T09:53:28.876Z,24.90
2022-07-28T09:58:22.423Z,24.90
2022-07-28T10:03:29.339Z,25.10
2022-07-28T10:08:42.241Z,25.20
2022-07-28T10:13:37.130Z,25.50
2022-07-28T10:18:31.912Z,25.80
2022-07-28T10:23:25.441Z,26.00
2022-07-28T10:28:23.242Z,26.00
2022-07-28T10:33:18.105Z,26.00
2022-07-28T10:38:16.260Z,25.90
2022-07-28T10:43:10.263Z,26.10
2022-07-28T10:48:06.163Z,26.10
2022-07-28T10:53:02.903Z,26.20
2022-07-28T10:58:12.384Z,26.40
2022-07-28T11:03:14.059Z,26.80
2022-07-28T11:08:10.796Z,26.80
2022-07-28T11:13:06.137Z,26.90
2022-07-28T11:18:09.835Z,27.00
2022-07-28T11:23:55.961Z,27.00
2022-07-28T11:29:20.537Z,27.30
2022-07-28T11:34:15.451Z,27.30
2022-07-28T11:39:25.354Z,27.00
2022-07-28T11:44:28.356Z,26.80
2022-07-28T11:49:28.065Z,26.80
2022-07-28T11:54:21.700Z,27.10
2022-07-28T11:59:16.576Z,27.50
2022-07-28T12:04:14.866Z,27.50
2022-07-28T12:09:10.757Z,27.60
2022-07-28T12:14:06.214Z,27.60
2022-07-28T12:19:01.692Z,27.50
2022-07-28T12:23:56.751Z,27.30
2022-07-28T12:28:52.273Z,27.10
2022-07-28T12:33:45.723Z,26.80
2022-07-28T12:38:39.347Z,26.80
2022-07-28T12:43:34.385Z,26.80
2022-07-28T12:48:27.936Z,26.90
2022-07-28T12:53:22.896Z,27.10
2022-07-28T12:58:36.179Z,27.10
2022-07-28T13:03:31.034Z,27.10
2022-07-28T13:08:27.653Z,27.00
2022-07-28T13:13:22.985Z,27.10
2022-07-28T13:18:17.746Z,27.20
2022-07-28T13:23:11.111Z,27.20
2022-07-28T13:28:04.575Z,27.20
2022-07-28T13:32:58.638Z,27.20
2022-07-28T13:37:53.449Z,27.20
2022-07-28T13:42:52.746Z,27.20
2022-07-28T13:47:52.178Z,27.20
2022-07-28T13:52:45.928Z,27.30
2022-07-28T14:23:34.095Z,27.10
2022-07-28T14:28:27.460Z,27.10
2022-07-28T14:33:20.983Z,27.10
2022-07-28T14:38:52.458Z,27.10
2022-07-28T14:43:29.322Z,27.10
2022-07-28T14:48:22.783Z,27.20
2022-07-28T14:53:17.283Z,27.30
2022-07-28T14:58:10.696Z,27.30
2022-07-28T15:03:05.725Z,27.30
2022-07-28T15:07:59.180Z,27.30
2022-07-28T15:12:53.007Z,27.30
2022-07-28T15:17:47.759Z,27.20
2022-07-28T15:27:53.624Z,27.20
2022-07-28T15:32:55.981Z,27.30
2022-07-28T15:37:50.460Z,27.30
2022-07-28T15:42:43.800Z,27.30
2022-07-28T15:47:38.767Z,27.30
2022-07-28T15:52:32.070Z,27.30
2022-07-28T15:57:25.432Z,27.30
2022-07-28T16:02:31.033Z,27.30
2022-07-28T16:07:28.303Z,27.20
2022-07-28T16:12:22.866Z,27.20
2022-07-28T16:17:16.649Z,27.30
2022-07-28T16:22:10.101Z,27.50
2022-07-28T16:27:04.936Z,27.50
2022-07-28T16:31:58.343Z,27.40
2022-07-28T16:36:51.782Z,27.30
2022-07-28T16:41:46.767Z,27.20
2022-07-28T16:46:42.347Z,27.10
2022-07-28T16:51:35.786Z,27.00
2022-07-28T16:56:29.423Z,26.90
2022-07-28T17:01:22.809Z,26.80
2022-07-28T17:06:17.685Z,26.60
2022-07-28T17:21:35.325Z,26.20
2022-07-28T17:27:32.574Z,26.30
2022-07-28T17:59:51.013Z,24.30
2022-07-28T18:04:47.481Z,24.20
2022-07-28T18:09:41.952Z,24.10
2022-07-28T18:21:27.085Z,23.70
2022-07-28T18:26:24.599Z,23.50
2022-07-28T18:36:30.079Z,22.80
2022-07-28T18:41:26.664Z,22.70
2022-07-28T18:56:41.093Z,22.30
2022-07-28T19:01:34.952Z,22.10
2022-07-28T19:06:29.335Z,22.10
2022-07-28T19:11:22.872Z,22.20
2022-07-28T19:16:20.167Z,22.10
2022-07-28T19:42:10.659Z,21.90
2022-07-28T19:47:04.263Z,21.80
2022-07-28T19:51:58.012Z,21.80
2022-07-28T20:44:29.944Z,21.80
